Lyman, Nebraska
Current Conditions -  °F | °C
As of 2:53 PM on Sunday 21 Dec 2014 (Local Time) from KBFF Reporting Station
Scattered Clouds Scattered Clouds  
Wind Chill: 38°   Ceiling: Unl
Heat Index: 43°   Visibility: 10mi
Dew Point: 33°   Wind: 9mph
Humidity: 68%   Direction: 290°WNW
Pressure: 29.45"   Gusts: NA
Location:  41.92°N, 104.04°W
Report Text: KBFF 212153Z AUTO 29008KT 10SM SCT110 06/01 A2945 RMK AO2 SLP990 T00610006
Loading
Personal Weather Stations






























Interactive Weather Map New forecast layout! Learn more

10-Day Weather Forecast

Advertisements
Track Severe Weather on mobile